Time;durP1;ratioP1;P1;durP2;ratioP2;P2;SDS_P1;SDS_P2;PMS_P1;PMS_P2;Temp;Humidity;BMP_temperature;BMP_pressure;BME280_temperature;BME280_humidity;BME280_pressure;Samples;Min_cycle;Max_cycle;Signal;HPM_P1;HPM_P2
2023/12/17 00:01:33;;;;;;;14.65;6.22;;;8.50;99.90;;;;;;5024018;28;20407;-75
2023/12/17 00:03:59;;;;;;;11.30;6.70;;;8.50;99.90;;;;;;5022713;28;20045;-75
2023/12/17 00:06:24;;;;;;;12.25;5.97;;;8.60;99.90;;;;;;5018706;28;20050;-75
2023/12/17 00:08:50;;;;;;;13.18;7.00;;;8.60;99.90;;;;;;5024201;28;20053;-75
2023/12/17 00:11:15;;;;;;;11.60;5.55;;;8.60;99.90;;;;;;5022437;28;20078;-75
2023/12/17 00:13:41;;;;;;;15.07;7.00;;;8.60;99.90;;;;;;5019881;28;20030;-75
2023/12/17 00:16:07;;;;;;;13.77;6.35;;;8.60;99.90;;;;;;5017853;28;20091;-76
2023/12/17 00:18:33;;;;;;;13.95;6.72;;;8.50;99.90;;;;;;5013098;28;20376;-75
2023/12/17 00:20:58;;;;;;;14.10;6.63;;;8.60;99.90;;;;;;5013431;28;20044;-75
2023/12/17 00:23:24;;;;;;;12.50;6.15;;;8.60;99.90;;;;;;5014031;28;20118;-75
2023/12/17 00:25:49;;;;;;;15.05;6.93;;;8.60;99.90;;;;;;5014228;28;20025;-76
2023/12/17 00:28:15;;;;;;;14.90;7.50;;;8.60;99.90;;;;;;5018910;28;20036;-75
2023/12/17 00:30:40;;;;;;;14.45;7.38;;;8.60;99.90;;;;;;5026476;28;20461;-75
2023/12/17 00:33:06;;;;;;;12.50;5.93;;;8.60;99.90;;;;;;5019147;28;20099;-75
2023/12/17 00:35:31;;;;;;;13.98;6.82;;;8.60;99.90;;;;;;5016534;28;20105;-76
2023/12/17 00:37:57;;;;;;;16.23;6.90;;;8.70;99.90;;;;;;5022936;28;20055;-76
2023/12/17 00:40:22;;;;;;;16.08;7.95;;;8.70;99.90;;;;;;5017089;28;20095;-75
2023/12/17 00:42:48;;;;;;;12.40;7.30;;;8.80;99.90;;;;;;5027658;28;20100;-76
2023/12/17 00:45:13;;;;;;;12.90;6.32;;;8.70;99.90;;;;;;5018041;28;20068;-75
2023/12/17 00:47:39;;;;;;;13.23;6.72;;;8.80;99.90;;;;;;5018424;28;20422;-75
2023/12/17 00:50:05;;;;;;;13.93;6.53;;;8.80;99.90;;;;;;5018501;28;20037;-75
2023/12/17 00:52:32;;;;;;;13.02;6.00;;;8.80;99.90;;;;;;5017142;28;20096;-75
2023/12/17 00:54:57;;;;;;;12.52;6.00;;;8.80;99.90;;;;;;5017765;28;20033;-76
2023/12/17 00:57:23;;;;;;;10.50;5.38;;;8.80;99.90;;;;;;5017834;28;20041;-75
2023/12/17 00:59:48;;;;;;;10.52;5.50;;;8.80;99.90;;;;;;5020865;28;20377;-76
2023/12/17 01:02:14;;;;;;;11.95;5.70;;;8.80;99.90;;;;;;5016146;28;20046;-75
2023/12/17 01:04:39;;;;;;;11.75;5.78;;;8.80;99.90;;;;;;5014775;28;20096;-75
2023/12/17 01:07:05;;;;;;;14.48;6.47;;;8.80;99.90;;;;;;5012851;28;20049;-75
2023/12/17 01:09:30;;;;;;;11.95;5.60;;;8.80;99.80;;;;;;5020008;28;20038;-76
2023/12/17 01:11:57;;;;;;;10.93;5.60;;;8.80;99.80;;;;;;5022738;28;20037;-75
2023/12/17 01:14:23;;;;;;;11.73;5.18;;;8.80;99.80;;;;;;5018585;28;20555;-75
2023/12/17 01:16:48;;;;;;;12.20;5.68;;;8.90;99.40;;;;;;5021343;28;20037;-75
2023/12/17 01:19:13;;;;;;;11.88;5.40;;;8.80;99.40;;;;;;5009155;28;20458;-75
2023/12/17 01:21:39;;;;;;;12.57;5.85;;;8.90;99.40;;;;;;5024244;28;20133;-75
2023/12/17 01:24:05;;;;;;;10.05;5.18;;;8.90;99.30;;;;;;5017876;28;20145;-75
2023/12/17 01:26:30;;;;;;;13.23;6.18;;;8.90;99.30;;;;;;5015086;28;20420;-75
2023/12/17 01:28:56;;;;;;;9.65;4.63;;;9.00;99.20;;;;;;5022119;28;20128;-75
2023/12/17 01:31:22;;;;;;;12.32;5.63;;;8.90;99.30;;;;;;5015983;28;20118;-75
2023/12/17 01:33:47;;;;;;;9.45;4.60;;;8.90;99.40;;;;;;5016482;28;20441;-75
2023/12/17 01:36:13;;;;;;;11.70;5.65;;;9.00;98.90;;;;;;5012533;28;20100;-75
2023/12/17 01:38:38;;;;;;;9.25;5.22;;;9.00;98.80;;;;;;5036034;28;20116;-75
2023/12/17 01:41:06;;;;;;;10.10;4.70;;;9.00;98.60;;;;;;5027258;28;20120;-75
2023/12/17 01:43:32;;;;;;;10.27;5.72;;;9.00;98.50;;;;;;5021840;28;20033;-75
2023/12/17 01:45:57;;;;;;;8.93;4.95;;;9.00;98.50;;;;;;5016013;28;20029;-76
2023/12/17 01:48:25;;;;;;;9.45;4.95;;;9.00;98.60;;;;;;5017677;28;20183;-75
2023/12/17 01:50:52;;;;;;;10.10;5.30;;;9.00;98.80;;;;;;5017908;28;20288;-75
2023/12/17 01:53:17;;;;;;;9.18;4.07;;;9.00;98.70;;;;;;5010135;28;20060;-75
2023/12/17 01:55:45;;;;;;;11.73;5.45;;;9.00;98.50;;;;;;5016685;28;20112;-75
2023/12/17 01:58:12;;;;;;;9.43;4.95;;;9.00;98.40;;;;;;5010710;28;20028;-76
2023/12/17 02:00:38;;;;;;;8.30;4.60;;;9.00;98.20;;;;;;5014035;28;20040;-76
2023/12/17 02:03:04;;;;;;;11.23;5.45;;;9.00;98.30;;;;;;5007759;28;20396;-75
2023/12/17 02:05:33;;;;;;;10.15;5.68;;;9.00;98.30;;;;;;5015412;28;20041;-75
2023/12/17 02:08:00;;;;;;;9.90;5.70;;;9.00;98.30;;;;;;5026869;28;20026;-75
2023/12/17 02:10:26;;;;;;;9.43;5.43;;;9.00;98.30;;;;;;5018690;28;20037;-75
2023/12/17 02:12:51;;;;;;;8.85;5.07;;;9.00;98.00;;;;;;5017007;28;20076;-75
2023/12/17 02:15:17;;;;;;;8.98;4.13;;;9.00;98.00;;;;;;5009717;28;20105;-75
2023/12/17 02:17:43;;;;;;;8.68;4.43;;;9.00;98.10;;;;;;5017242;28;20033;-75
2023/12/17 02:20:08;;;;;;;9.10;4.22;;;9.00;98.00;;;;;;5018804;28;20025;-75
2023/12/17 02:22:36;;;;;;;8.40;4.20;;;9.00;97.80;;;;;;5017382;28;20041;-75
2023/12/17 02:25:01;;;;;;;9.13;4.65;;;9.00;97.80;;;;;;5010550;28;20431;-75
2023/12/17 02:27:27;;;;;;;7.55;4.05;;;9.00;97.50;;;;;;5022631;28;20036;-75
2023/12/17 02:29:55;;;;;;;8.93;4.63;;;9.10;97.50;;;;;;5020230;28;20045;-75
2023/12/17 02:32:22;;;;;;;8.68;4.72;;;9.00;97.50;;;;;;5011711;28;20030;-75
2023/12/17 02:34:48;;;;;;;6.75;3.67;;;9.10;97.10;;;;;;5022405;28;20176;-75
2023/12/17 02:37:14;;;;;;;6.65;3.75;;;9.10;97.30;;;;;;5016027;28;20033;-75
2023/12/17 02:39:40;;;;;;;6.88;3.88;;;9.10;97.30;;;;;;5015822;28;20440;-75
2023/12/17 02:42:05;;;;;;;8.20;4.72;;;9.10;97.40;;;;;;5013220;28;20164;-75
2023/12/17 02:44:31;;;;;;;7.30;3.80;;;9.00;97.30;;;;;;5017651;28;20125;-75
2023/12/17 02:46:57;;;;;;;7.05;3.70;;;9.00;97.40;;;;;;5011177;28;20037;-75
2023/12/17 02:49:26;;;;;;;7.30;3.72;;;9.00;97.30;;;;;;5015730;28;20176;-75
2023/12/17 02:51:52;;;;;;;6.57;3.60;;;9.00;97.50;;;;;;5013802;28;20029;-75
2023/12/17 02:54:18;;;;;;;6.88;4.20;;;9.00;97.40;;;;;;5017629;28;20026;-75
2023/12/17 02:56:44;;;;;;;7.50;3.70;;;9.10;96.60;;;;;;5014410;28;20084;-75
2023/12/17 02:59:11;;;;;;;7.63;3.90;;;9.10;96.70;;;;;;5012128;28;20116;-75
2023/12/17 03:01:39;;;;;;;7.95;4.25;;;9.10;96.60;;;;;;5011083;28;20033;-75
2023/12/17 03:04:05;;;;;;;6.15;3.25;;;9.00;96.90;;;;;;5017402;28;20029;-75
2023/12/17 03:06:30;;;;;;;7.20;3.38;;;9.10;96.80;;;;;;5016254;28;20578;-75
2023/12/17 03:08:56;;;;;;;6.47;2.92;;;9.10;96.50;;;;;;5011886;28;20034;-75
2023/12/17 03:11:21;;;;;;;8.02;3.60;;;9.10;96.80;;;;;;5014851;28;20042;-75
2023/12/17 03:13:47;;;;;;;6.05;3.13;;;9.10;96.70;;;;;;5034635;28;20077;-75
2023/12/17 03:16:12;;;;;;;6.70;3.10;;;9.10;96.60;;;;;;5020035;28;20068;-75
2023/12/17 03:18:38;;;;;;;5.47;3.03;;;9.00;96.80;;;;;;5018373;28;20159;-75
2023/12/17 03:21:05;;;;;;;5.93;3.42;;;9.00;96.60;;;;;;5012819;28;20138;-75
2023/12/17 03:23:31;;;;;;;6.68;3.65;;;9.00;96.40;;;;;;5017896;28;20141;-74
2023/12/17 03:25:56;;;;;;;7.88;3.40;;;9.00;96.10;;;;;;5016453;28;20171;-75
2023/12/17 03:28:22;;;;;;;6.45;3.30;;;9.10;95.60;;;;;;5011286;28;20403;-75
2023/12/17 03:30:48;;;;;;;6.07;3.33;;;9.10;95.50;;;;;;5020348;28;20034;-75
2023/12/17 03:33:13;;;;;;;6.47;2.72;;;9.10;94.90;;;;;;5010936;28;20397;-75
2023/12/17 03:35:39;;;;;;;6.18;2.78;;;9.20;94.90;;;;;;5010146;28;20113;-75
2023/12/17 03:38:04;;;;;;;6.32;2.83;;;9.10;95.50;;;;;;5021236;28;20125;-75
2023/12/17 03:40:30;;;;;;;6.15;3.42;;;9.20;95.20;;;;;;5016884;28;20429;-74
2023/12/17 03:42:56;;;;;;;6.20;3.38;;;9.20;95.30;;;;;;5029074;28;20033;-75
2023/12/17 03:45:22;;;;;;;6.32;2.75;;;9.10;95.40;;;;;;5011388;28;20236;-76
2023/12/17 03:47:49;;;;;;;5.47;2.65;;;9.20;94.90;;;;;;5009969;28;20135;-75
2023/12/17 03:50:15;;;;;;;4.30;2.60;;;9.10;95.00;;;;;;5028748;28;20143;-75
2023/12/17 03:52:41;;;;;;;5.72;2.60;;;9.10;95.10;;;;;;5013141;28;20429;-75
2023/12/17 03:55:07;;;;;;;5.55;2.72;;;9.10;95.10;;;;;;5017357;28;20065;-75
2023/12/17 03:57:32;;;;;;;6.82;3.50;;;9.10;95.30;;;;;;5006249;28;20109;-75
2023/12/17 03:59:58;;;;;;;5.18;2.40;;;9.10;95.40;;;;;;5010944;28;20117;-75
2023/12/17 04:02:25;;;;;;;5.65;2.78;;;9.10;95.50;;;;;;5014143;28;20033;-75
2023/12/17 04:04:50;;;;;;;5.72;2.97;;;9.10;95.30;;;;;;5009644;28;20109;-75
2023/12/17 04:07:16;;;;;;;5.15;2.88;;;9.10;95.30;;;;;;5010810;28;20140;-75
2023/12/17 04:09:41;;;;;;;8.18;2.70;;;9.10;95.10;;;;;;5017203;28;20030;-75
2023/12/17 04:12:07;;;;;;;4.63;2.53;;;9.10;94.70;;;;;;5011852;28;20029;-74
2023/12/17 04:14:32;;;;;;;5.43;2.55;;;9.10;94.80;;;;;;5013924;28;20042;-75
2023/12/17 04:16:58;;;;;;;4.47;2.72;;;9.10;94.80;;;;;;5018587;28;20157;-75
2023/12/17 04:19:23;;;;;;;5.10;2.83;;;9.10;94.60;;;;;;5007367;28;20045;-75
2023/12/17 04:21:49;;;;;;;5.53;3.10;;;9.10;94.70;;;;;;5015704;28;20045;-74
2023/12/17 04:24:15;;;;;;;7.38;3.55;;;9.10;94.60;;;;;;5017970;28;20104;-75
2023/12/17 04:26:40;;;;;;;5.28;3.03;;;9.10;95.00;;;;;;5007957;28;20038;-75
2023/12/17 04:29:06;;;;;;;6.03;2.92;;;9.10;94.90;;;;;;5017635;28;20122;-75
2023/12/17 04:31:31;;;;;;;5.50;2.97;;;9.10;94.80;;;;;;5011182;28;20048;-75
2023/12/17 04:33:57;;;;;;;6.65;3.83;;;9.10;94.90;;;;;;5010578;28;20113;-75
2023/12/17 04:36:23;;;;;;;7.32;3.53;;;9.10;94.90;;;;;;5019103;28;20124;-75
2023/12/17 04:38:49;;;;;;;5.88;3.47;;;9.10;94.90;;;;;;5022061;28;20065;-75
2023/12/17 04:41:14;;;;;;;5.32;3.25;;;9.10;95.20;;;;;;5013204;28;20393;-75
2023/12/17 04:43:40;;;;;;;6.60;3.22;;;9.10;95.20;;;;;;5025198;28;20099;-75
2023/12/17 04:46:06;;;;;;;5.18;3.03;;;9.10;95.30;;;;;;5013973;28;20034;-74
2023/12/17 04:48:31;;;;;;;6.40;3.35;;;9.20;94.70;;;;;;5011816;28;20442;-75
2023/12/17 04:50:56;;;;;;;6.38;3.63;;;9.10;94.90;;;;;;5018655;28;20084;-75
2023/12/17 04:53:22;;;;;;;6.18;3.25;;;9.10;95.20;;;;;;5015531;28;20350;-75
2023/12/17 04:55:48;;;;;;;6.05;3.40;;;9.10;95.30;;;;;;5014560;28;20030;-74
2023/12/17 04:58:13;;;;;;;6.07;3.55;;;9.10;95.30;;;;;;5019936;28;20116;-74
2023/12/17 05:00:39;;;;;;;4.93;2.65;;;9.10;95.40;;;;;;5016118;28;20041;-75
2023/12/17 05:03:05;;;;;;;6.95;3.60;;;9.10;94.90;;;;;;5015875;28;20079;-75
2023/12/17 05:05:30;;;;;;;4.63;2.63;;;9.10;95.10;;;;;;5018897;28;20175;-74
2023/12/17 05:07:56;;;;;;;5.13;3.03;;;9.10;95.00;;;;;;5024870;28;20022;-74
2023/12/17 05:10:21;;;;;;;6.00;3.33;;;9.10;94.80;;;;;;5021189;28;20664;-74
2023/12/17 05:12:47;;;;;;;4.90;2.83;;;9.10;95.00;;;;;;5017093;28;20053;-74
2023/12/17 05:15:12;;;;;;;5.55;3.13;;;9.00;95.30;;;;;;5022199;28;20099;-75
2023/12/17 05:17:38;;;;;;;4.28;2.33;;;9.00;95.50;;;;;;5023040;28;20030;-75
2023/12/17 05:20:05;;;;;;;5.28;3.05;;;9.10;95.30;;;;;;5011831;28;20525;-74
2023/12/17 05:22:30;;;;;;;4.82;2.60;;;9.10;95.10;;;;;;5026426;28;20053;-74
2023/12/17 05:24:56;;;;;;;5.93;3.17;;;9.10;95.10;;;;;;5013369;28;20072;-74
2023/12/17 05:27:21;;;;;;;4.20;2.50;;;9.10;95.20;;;;;;5014755;28;20077;-74
2023/12/17 05:29:47;;;;;;;4.35;2.28;;;9.10;95.40;;;;;;5025235;28;20131;-75
2023/12/17 05:32:12;;;;;;;7.15;3.00;;;9.10;95.40;;;;;;5026351;28;20033;-74
2023/12/17 05:34:38;;;;;;;6.82;2.97;;;9.10;95.40;;;;;;5025779;28;20037;-75
2023/12/17 05:37:03;;;;;;;5.97;2.80;;;9.10;95.30;;;;;;5022289;28;20024;-75
2023/12/17 05:39:29;;;;;;;3.75;2.45;;;9.10;95.40;;;;;;5022380;28;20041;-74
2023/12/17 05:41:55;;;;;;;5.90;3.00;;;9.10;95.30;;;;;;5012767;28;20060;-74
2023/12/17 05:44:22;;;;;;;5.97;2.88;;;9.10;95.40;;;;;;5018988;28;20065;-74
2023/12/17 05:46:47;;;;;;;7.78;3.28;;;9.10;95.50;;;;;;5014237;28;20064;-75
2023/12/17 05:49:13;;;;;;;4.90;2.75;;;9.10;95.50;;;;;;5011454;28;20084;-75
2023/12/17 05:51:42;;;;;;;6.68;2.80;;;9.10;95.30;;;;;;5014483;28;20977;-75
2023/12/17 05:54:08;;;;;;;5.75;3.28;;;9.10;95.60;;;;;;5018739;28;20103;-74
2023/12/17 05:56:39;;;;;;;5.38;2.97;;;9.10;95.70;;;;;;5018725;28;20109;-75
2023/12/17 05:59:04;;;;;;;4.00;2.42;;;9.10;95.80;;;;;;5013457;28;20339;-75
2023/12/17 06:01:29;;;;;;;6.25;3.33;;;9.10;95.70;;;;;;5017032;28;20125;-74
2023/12/17 06:03:55;;;;;;;4.57;2.88;;;9.10;95.40;;;;;;5021076;28;20128;-74
2023/12/17 06:06:20;;;;;;;6.88;3.10;;;9.20;95.20;;;;;;5016926;28;20442;-74
2023/12/17 06:08:46;;;;;;;5.72;2.83;;;9.20;95.30;;;;;;5015569;28;20100;-74
2023/12/17 06:11:16;;;;;;;5.75;2.92;;;9.20;95.20;;;;;;5017479;28;20156;-74
2023/12/17 06:13:42;;;;;;;4.85;2.65;;;9.20;95.30;;;;;;5019993;28;20041;-74
2023/12/17 06:16:09;;;;;;;5.75;2.92;;;9.20;95.40;;;;;;5009127;28;20117;-74
2023/12/17 06:18:34;;;;;;;5.97;3.40;;;9.20;95.40;;;;;;5014149;28;20422;-74
2023/12/17 06:21:01;;;;;;;4.25;2.75;;;9.10;95.60;;;;;;5015680;28;20037;-75
2023/12/17 06:23:27;;;;;;;5.70;2.92;;;9.20;95.40;;;;;;5018584;28;20024;-75
2023/12/17 06:25:52;;;;;;;6.63;3.25;;;9.10;95.50;;;;;;5015604;28;20445;-75
2023/12/17 06:28:20;;;;;;;6.63;3.45;;;9.10;95.50;;;;;;5016301;28;20017;-74
2023/12/17 06:30:45;;;;;;;6.03;3.65;;;9.20;95.50;;;;;;5021744;28;20419;-74
2023/12/17 06:33:11;;;;;;;4.60;2.92;;;9.20;95.40;;;;;;5012223;28;20037;-74
2023/12/17 06:35:37;;;;;;;5.25;3.08;;;9.20;95.60;;;;;;5018506;28;20111;-74
2023/12/17 06:38:03;;;;;;;5.75;2.92;;;9.10;95.60;;;;;;5022993;28;20025;-74
2023/12/17 06:40:28;;;;;;;4.97;3.10;;;9.10;95.60;;;;;;5021618;28;20117;-74
2023/12/17 06:42:54;;;;;;;7.28;3.38;;;9.30;95.20;;;;;;5012972;28;20037;-74
2023/12/17 06:45:20;;;;;;;5.10;2.92;;;9.20;95.20;;;;;;5009691;28;20049;-75
2023/12/17 06:47:45;;;;;;;6.00;3.10;;;9.20;95.50;;;;;;5016589;28;20037;-75
2023/12/17 06:50:12;;;;;;;6.43;3.58;;;9.20;95.50;;;;;;5006674;28;20132;-74
2023/12/17 06:52:37;;;;;;;6.22;2.88;;;9.20;95.20;;;;;;5012562;28;20034;-74
2023/12/17 06:55:04;;;;;;;5.30;3.08;;;9.30;95.00;;;;;;5011858;28;20095;-74
2023/12/17 06:57:29;;;;;;;5.72;3.17;;;9.20;95.10;;;;;;5014886;28;20033;-74
2023/12/17 06:59:55;;;;;;;5.55;3.13;;;9.20;95.40;;;;;;5009490;28;20137;-74
2023/12/17 07:02:20;;;;;;;6.50;3.38;;;9.20;95.30;;;;;;5011606;28;20050;-76
2023/12/17 07:04:46;;;;;;;6.30;3.35;;;9.20;95.40;;;;;;5020151;28;20108;-75
2023/12/17 07:07:11;;;;;;;6.05;3.47;;;9.10;95.50;;;;;;5019404;28;20099;-74
2023/12/17 07:09:37;;;;;;;7.13;3.53;;;9.10;95.40;;;;;;5016496;28;20397;-75
2023/12/17 07:12:02;;;;;;;4.72;2.55;;;9.20;95.40;;;;;;5021540;28;20445;-74
2023/12/17 07:14:28;;;;;;;6.15;3.35;;;9.20;95.20;;;;;;5013429;28;20069;-75
2023/12/17 07:16:53;;;;;;;7.78;2.83;;;9.20;95.30;;;;;;5014842;28;20447;-74
2023/12/17 07:19:19;;;;;;;6.57;3.67;;;9.20;95.20;;;;;;5010463;28;20044;-75
2023/12/17 07:21:44;;;;;;;5.88;2.85;;;9.20;95.20;;;;;;5011180;28;20108;-74
2023/12/17 07:24:10;;;;;;;5.45;2.90;;;9.10;95.40;;;;;;5014733;28;20038;-75
2023/12/17 07:26:35;;;;;;;6.50;3.70;;;9.10;95.40;;;;;;5011668;28;20025;-74
2023/12/17 07:29:01;;;;;;;4.88;2.90;;;9.20;95.20;;;;;;5016273;28;20076;-74
2023/12/17 07:31:26;;;;;;;4.72;3.05;;;9.20;95.30;;;;;;5017517;28;20389;-74
2023/12/17 07:33:52;;;;;;;3.47;2.30;;;9.10;95.40;;;;;;5015576;28;20133;-74
2023/12/17 07:36:17;;;;;;;5.97;3.00;;;9.10;95.40;;;;;;5017577;28;20033;-74
2023/12/17 07:38:43;;;;;;;4.57;2.58;;;9.10;95.50;;;;;;5019115;28;20108;-74
2023/12/17 07:41:08;;;;;;;5.78;3.25;;;9.10;95.50;;;;;;5009761;28;20042;-74
2023/12/17 07:43:34;;;;;;;5.38;2.60;;;9.10;95.00;;;;;;5014104;28;20030;-75
2023/12/17 07:46:00;;;;;;;5.95;2.65;;;9.10;94.80;;;;;;5020798;28;20203;-74
2023/12/17 07:48:25;;;;;;;6.22;2.58;;;9.20;94.60;;;;;;5014600;28;20050;-74
2023/12/17 07:50:51;;;;;;;5.22;2.45;;;9.20;94.60;;;;;;5009465;28;20121;-75
2023/12/17 07:53:16;;;;;;;4.28;2.60;;;9.20;94.60;;;;;;5012254;28;20034;-74
2023/12/17 07:55:42;;;;;;;5.63;3.53;;;9.20;94.90;;;;;;5012614;28;20069;-74
2023/12/17 07:58:08;;;;;;;6.53;3.25;;;9.10;95.00;;;;;;5013986;28;20164;-75
2023/12/17 08:00:33;;;;;;;5.93;3.30;;;9.20;94.80;;;;;;5014378;28;20037;-74
2023/12/17 08:02:58;;;;;;;9.50;3.78;;;9.20;94.50;;;;;;5010598;28;20045;-74
2023/12/17 08:05:24;;;;;;;6.43;3.60;;;9.30;94.40;;;;;;5014643;28;20034;-74
2023/12/17 08:07:49;;;;;;;6.95;3.92;;;9.30;94.60;;;;;;5015052;28;20101;-74
2023/12/17 08:10:15;;;;;;;6.10;3.53;;;9.20;94.70;;;;;;5016096;28;20132;-75
2023/12/17 08:12:41;;;;;;;7.50;3.70;;;9.20;94.50;;;;;;5009950;28;20419;-74
2023/12/17 08:15:06;;;;;;;6.35;3.35;;;9.20;94.50;;;;;;5019225;28;20144;-75
2023/12/17 08:17:32;;;;;;;5.10;2.88;;;9.20;94.60;;;;;;5020720;28;20131;-74
2023/12/17 08:19:57;;;;;;;11.32;3.97;;;9.20;94.70;;;;;;5024003;28;20103;-74
2023/12/17 08:22:23;;;;;;;6.55;3.70;;;9.10;94.80;;;;;;5020499;28;20418;-74
2023/12/17 08:24:49;;;;;;;5.70;3.40;;;9.20;94.60;;;;;;5016762;28;20413;-74
2023/12/17 08:27:14;;;;;;;6.15;3.92;;;9.30;94.60;;;;;;5014583;28;20421;-74
2023/12/17 08:29:41;;;;;;;6.50;3.35;;;9.20;94.70;;;;;;5020365;28;20119;-74
2023/12/17 08:32:06;;;;;;;6.43;3.47;;;9.20;94.70;;;;;;5025509;28;20030;-74
2023/12/17 08:34:32;;;;;;;6.15;3.40;;;9.20;94.70;;;;;;5014556;28;20429;-74
2023/12/17 08:36:58;;;;;;;5.45;3.08;;;9.30;94.50;;;;;;5017315;28;20464;-74
2023/12/17 08:39:23;;;;;;;7.03;3.60;;;9.30;94.30;;;;;;5022685;28;20115;-74
2023/12/17 08:41:52;;;;;;;5.68;3.20;;;9.30;94.00;;;;;;5014482;28;20107;-75
2023/12/17 08:44:20;;;;;;;5.25;3.00;;;9.30;94.20;;;;;;5018777;28;20041;-75
2023/12/17 08:46:46;;;;;;;7.40;3.35;;;9.30;93.90;;;;;;5018762;28;20104;-74
2023/12/17 08:49:12;;;;;;;4.43;2.55;;;9.30;93.70;;;;;;5016416;28;20224;-74
2023/12/17 08:51:38;;;;;;;5.40;3.20;;;9.30;94.10;;;;;;5018101;28;20115;-72
2023/12/17 08:54:04;;;;;;;5.95;3.20;;;9.30;93.90;;;;;;5016039;28;20121;-73
2023/12/17 08:56:30;;;;;;;5.03;3.10;;;9.30;94.10;;;;;;5016030;28;20038;-73
2023/12/17 08:58:56;;;;;;;5.15;3.00;;;9.30;94.10;;;;;;5013081;28;20072;-73
2023/12/17 09:01:21;;;;;;;5.78;3.33;;;9.30;94.10;;;;;;5013563;28;20100;-73
2023/12/17 09:03:47;;;;;;;6.10;3.28;;;9.30;94.10;;;;;;5014390;28;20022;-73
2023/12/17 09:06:12;;;;;;;8.27;3.67;;;9.30;94.20;;;;;;5024309;28;20192;-73
2023/12/17 09:08:38;;;;;;;6.15;3.40;;;9.30;94.40;;;;;;5027279;28;20034;-75
2023/12/17 09:11:03;;;;;;;6.00;3.30;;;9.20;94.50;;;;;;5025183;28;20029;-75
2023/12/17 09:13:29;;;;;;;5.95;3.22;;;9.20;94.30;;;;;;5021441;28;20049;-74
2023/12/17 09:15:54;;;;;;;5.85;3.45;;;9.20;94.30;;;;;;5033260;28;20045;-74
2023/12/17 09:18:20;;;;;;;6.03;3.25;;;9.20;94.10;;;;;;5019419;28;20326;-74
2023/12/17 09:20:45;;;;;;;6.20;3.45;;;9.20;94.30;;;;;;5023502;28;20037;-74
2023/12/17 09:23:11;;;;;;;4.93;3.20;;;9.20;93.90;;;;;;5011018;28;20073;-75
2023/12/17 09:25:37;;;;;;;6.63;2.97;;;9.20;94.00;;;;;;5012497;28;20446;-73
2023/12/17 09:28:02;;;;;;;6.82;3.63;;;9.20;93.60;;;;;;5014361;28;20103;-72
2023/12/17 09:30:28;;;;;;;6.50;3.72;;;9.20;94.00;;;;;;5013334;28;20036;-72
2023/12/17 09:32:53;;;;;;;6.40;3.33;;;9.20;94.20;;;;;;5015896;28;20032;-73
2023/12/17 09:35:20;;;;;;;5.35;3.10;;;9.10;94.30;;;;;;5015520;28;20044;-72
2023/12/17 09:37:46;;;;;;;5.78;3.00;;;9.20;94.20;;;;;;5022245;28;20082;-73
2023/12/17 09:40:12;;;;;;;7.15;3.13;;;9.20;94.10;;;;;;5022358;28;20111;-72
2023/12/17 09:42:40;;;;;;;7.22;3.47;;;9.20;93.90;;;;;;5011948;28;20061;-72
2023/12/17 09:45:06;;;;;;;6.93;3.90;;;9.20;94.10;;;;;;5016378;28;20466;-72
2023/12/17 09:47:32;;;;;;;6.22;3.58;;;9.30;94.10;;;;;;5016395;28;20223;-72
2023/12/17 09:49:58;;;;;;;6.55;3.80;;;9.30;94.00;;;;;;5022661;28;20037;-72
2023/12/17 09:52:28;;;;;;;8.10;3.83;;;9.30;94.10;;;;;;5019980;28;20053;-72
2023/12/17 09:54:54;;;;;;;;;;;9.30;93.60;;;;;;5019252;28;20100;-72
2023/12/17 09:57:19;;;;;;;5.80;3.20;;;9.30;93.30;;;;;;5013131;28;20044;-72
2023/12/17 09:59:46;;;;;;;6.60;3.63;;;9.30;93.40;;;;;;5016101;28;20041;-74
2023/12/17 10:02:14;;;;;;;4.70;3.03;;;9.30;93.60;;;;;;5021131;28;20036;-72
2023/12/17 10:04:40;;;;;;;5.55;3.20;;;9.30;93.70;;;;;;5034776;28;20451;-74
2023/12/17 10:07:06;;;;;;;5.32;3.28;;;9.30;93.80;;;;;;5020398;28;20142;-73
2023/12/17 10:09:35;;;;;;;6.35;3.45;;;9.30;93.50;;;;;;5014679;28;20155;-72
2023/12/17 10:12:01;;;;;;;4.55;2.78;;;9.30;93.80;;;;;;5018009;28;20167;-72
2023/12/17 10:14:30;;;;;;;5.07;3.33;;;9.30;93.20;;;;;;5017024;28;20346;-73
2023/12/17 10:16:58;;;;;;;6.43;3.50;;;9.20;93.40;;;;;;5018111;28;20103;-73
2023/12/17 10:19:24;;;;;;;4.75;2.78;;;9.30;93.40;;;;;;5012251;28;20462;-73
2023/12/17 10:21:50;;;;;;;5.25;2.72;;;9.20;93.70;;;;;;5017879;28;20084;-73
2023/12/17 10:24:16;;;;;;;4.68;2.47;;;9.30;93.40;;;;;;5027527;28;20064;-74
2023/12/17 10:26:46;;;;;;;4.70;2.45;;;9.30;93.20;;;;;;5013031;28;20038;-73
2023/12/17 10:29:21;;;;;;;5.00;2.45;;;9.30;93.10;;;;;;5021278;28;20026;-73
2023/12/17 10:31:47;;;;;;;5.00;2.85;;;9.30;93.30;;;;;;5019904;28;20446;-73
2023/12/17 10:34:22;;;;;;;5.18;2.45;;;9.30;93.20;;;;;;5013854;28;20056;-74
2023/12/17 10:36:49;;;;;;;4.18;2.17;;;9.30;93.50;;;;;;5020911;28;20048;-73
2023/12/17 10:39:16;;;;;;;5.00;2.40;;;9.40;93.60;;;;;;5015128;28;20040;-73
2023/12/17 10:41:42;;;;;;;6.75;2.60;;;9.30;93.50;;;;;;5021821;28;20366;-73
2023/12/17 10:44:14;;;;;;;5.05;2.70;;;9.30;93.70;;;;;;5013556;28;20587;-74
2023/12/17 10:46:45;;;;;;;5.03;2.53;;;9.30;93.80;;;;;;5015760;28;20038;-73
2023/12/17 10:49:11;;;;;;;3.88;2.28;;;9.30;93.60;;;;;;5012460;28;20037;-73
2023/12/17 10:51:42;;;;;;;4.70;2.38;;;9.40;93.60;;;;;;5020381;28;20482;-73
2023/12/17 10:54:08;;;;;;;5.43;2.85;;;9.30;93.70;;;;;;5014533;28;20077;-73
2023/12/17 10:56:38;;;;;;;4.80;2.25;;;9.30;93.80;;;;;;5018059;28;20077;-76
2023/12/17 10:59:08;;;;;;;6.03;2.40;;;9.30;93.60;;;;;;5023112;28;21366;-75
2023/12/17 11:01:36;;;;;;;4.97;2.10;;;9.40;94.00;;;;;;5021198;28;20882;-74
2023/12/17 11:04:03;;;;;;;6.10;3.22;;;9.30;94.10;;;;;;5031306;28;20025;-75
2023/12/17 11:06:29;;;;;;;7.78;2.85;;;9.30;94.00;;;;;;5029566;28;20133;-77
2023/12/17 11:08:54;;;;;;;3.15;2.15;;;9.30;94.00;;;;;;5008439;28;20106;-77
2023/12/17 11:11:22;;;;;;;3.72;1.83;;;9.40;94.00;;;;;;5009362;28;20037;-77
2023/12/17 11:13:48;;;;;;;5.00;2.10;;;9.40;94.00;;;;;;5009723;28;20033;-76
2023/12/17 11:16:21;;;;;;;4.18;2.67;;;9.40;93.80;;;;;;5013762;28;20026;-73
2023/12/17 11:18:47;;;;;;;5.10;2.70;;;9.40;94.00;;;;;;5010385;28;20040;-73
2023/12/17 11:21:13;;;;;;;3.17;1.75;;;9.40;94.10;;;;;;5013277;28;20037;-73
2023/12/17 11:23:39;;;;;;;4.45;2.60;;;9.40;94.00;;;;;;5012411;28;20037;-73
2023/12/17 11:26:05;;;;;;;4.32;2.20;;;9.40;94.00;;;;;;5016382;28;20048;-72
2023/12/17 11:28:32;;;;;;;5.30;2.40;;;9.40;94.00;;;;;;5008160;28;20323;-72
2023/12/17 11:30:58;;;;;;;4.88;2.40;;;9.50;93.90;;;;;;5011341;28;20026;-72
2023/12/17 11:33:25;;;;;;;4.40;2.17;;;9.50;93.90;;;;;;5011758;28;20137;-72
2023/12/17 11:35:51;;;;;;;4.97;2.13;;;9.40;94.20;;;;;;5011081;28;20299;-72
2023/12/17 11:38:17;;;;;;;5.57;2.67;;;9.50;94.20;;;;;;5013879;28;20030;-73
2023/12/17 11:40:43;;;;;;;5.80;3.13;;;9.50;94.30;;;;;;5011641;28;20132;-72
2023/12/17 11:43:09;;;;;;;5.80;2.67;;;9.50;94.20;;;;;;5013288;28;20112;-72
2023/12/17 11:45:44;;;;;;;7.20;3.47;;;9.40;94.40;;;;;;5011066;28;20088;-73
2023/12/17 11:48:17;;;;;;;7.00;3.47;;;9.40;94.70;;;;;;5011979;28;20429;-72
2023/12/17 11:50:56;;;;;;;5.15;2.40;;;9.40;94.40;;;;;;5022473;28;20042;-72
2023/12/17 11:53:23;;;;;;;5.75;2.90;;;9.50;94.70;;;;;;5012389;28;20061;-72
2023/12/17 11:55:51;;;;;;;6.15;2.65;;;9.40;94.30;;;;;;5013261;28;20123;-73
2023/12/17 11:58:21;;;;;;;5.68;2.70;;;9.40;94.20;;;;;;5014055;28;20048;-73
2023/12/17 12:01:06;;;;;;;6.15;3.20;;;9.40;94.60;;;;;;5015960;28;20049;-75
2023/12/17 12:03:32;;;;;;;7.18;3.15;;;9.40;94.80;;;;;;5008735;28;20117;-76
2023/12/17 12:05:59;;;;;;;6.40;3.15;;;9.30;94.70;;;;;;5019430;28;20050;-69
2023/12/17 12:08:26;;;;;;;6.55;2.88;;;9.40;94.70;;;;;;5016524;28;20454;-75
2023/12/17 12:10:51;;;;;;;8.50;3.97;;;9.30;94.60;;;;;;5013340;28;20153;-76
2023/12/17 12:13:17;;;;;;;6.13;2.67;;;9.40;94.70;;;;;;5007460;28;20061;-72
2023/12/17 12:15:43;;;;;;;7.50;3.20;;;9.30;94.80;;;;;;5012012;28;20399;-73
2023/12/17 12:18:20;;;;;;;7.85;3.83;;;9.40;95.00;;;;;;5010934;28;20038;-72
2023/12/17 12:20:45;;;;;;;7.93;3.38;;;9.40;94.70;;;;;;5009527;28;20438;-72
2023/12/17 12:23:11;;;;;;;7.32;3.58;;;9.40;95.00;;;;;;5009855;28;20041;-71
2023/12/17 12:25:40;;;;;;;6.57;3.20;;;9.30;94.60;;;;;;5013153;28;20026;-71
2023/12/17 12:28:19;;;;;;;5.63;3.00;;;9.40;94.80;;;;;;5015044;28;20184;-71
2023/12/17 12:30:48;;;;;;;7.88;3.92;;;9.40;94.90;;;;;;5020252;28;20106;-70
2023/12/17 12:33:15;;;;;;;7.45;3.75;;;9.40;94.60;;;;;;5007332;28;20033;-70
2023/12/17 12:35:44;;;;;;;7.50;3.50;;;9.30;94.60;;;;;;5010459;28;20022;-73
2023/12/17 12:38:36;;;;;;;6.57;3.45;;;9.40;94.50;;;;;;5015645;28;20045;-75
2023/12/17 12:41:13;;;;;;;11.27;3.45;;;9.40;94.50;;;;;;5009687;28;20537;-78
2023/12/17 12:43:41;;;;;;;8.82;3.38;;;9.40;94.80;;;;;;5017728;28;20030;-76
2023/12/17 12:46:07;;;;;;;6.45;2.95;;;9.40;94.90;;;;;;5012326;28;20116;-78
2023/12/17 12:48:33;;;;;;;9.18;3.85;;;9.40;94.90;;;;;;5011829;28;20056;-77
2023/12/17 12:50:59;;;;;;;7.75;3.40;;;9.40;94.90;;;;;;5017922;28;20400;-80